Time;durP1;ratioP1;P1;durP2;ratioP2;P2;SDS_P1;SDS_P2;PMS_P1;PMS_P2;Temp;Humidity;BMP_temperature;BMP_pressure;BME280_temperature;BME280_humidity;BME280_pressure;Samples;Min_cycle;Max_cycle;Signal;HPM_P1;HPM_P2
2022/12/11 00:01:15;;;;;;;21.03;17.97;;;0.40;99.90;;;;;;5015315;28;20175;-83
2022/12/11 00:03:41;;;;;;;22.87;18.23;;;0.40;99.90;;;;;;5015487;28;20172;-83
2022/12/11 00:06:08;;;;;;;22.67;18.63;;;0.50;99.90;;;;;;5021502;28;20203;-83
2022/12/11 00:08:34;;;;;;;23.33;19.00;;;0.40;99.90;;;;;;5027669;28;20207;-83
2022/12/11 00:11:00;;;;;;;22.10;18.20;;;0.50;99.90;;;;;;5027199;28;20179;-83
2022/12/11 00:13:25;;;;;;;24.27;19.90;;;0.40;99.90;;;;;;5024083;28;20171;-83
2022/12/11 00:15:57;;;;;;;22.63;18.97;;;0.30;99.90;;;;;;5025486;28;20329;-83
2022/12/11 00:18:22;;;;;;;24.33;19.07;;;0.20;99.90;;;;;;5026020;28;20175;-83
2022/12/11 00:20:48;;;;;;;22.27;18.23;;;0.30;99.90;;;;;;5026147;28;20187;-83
2022/12/11 00:23:13;;;;;;;21.27;17.47;;;0.40;99.90;;;;;;5026386;28;20179;-83
2022/12/11 00:25:46;;;;;;;23.67;19.23;;;0.40;99.90;;;;;;5024975;28;20208;-83
2022/12/11 00:28:13;;;;;;;20.87;18.50;;;0.50;99.90;;;;;;5025594;28;20203;-83
2022/12/11 00:30:41;;;;;;;26.03;20.77;;;0.50;99.90;;;;;;5025968;28;20210;-83
2022/12/11 00:33:07;;;;;;;21.97;18.67;;;0.60;99.90;;;;;;5026337;28;20172;-83
2022/12/11 00:35:33;;;;;;;22.03;18.87;;;0.50;99.90;;;;;;5024270;28;20196;-83
2022/12/11 00:37:58;;;;;;;28.80;23.17;;;0.60;99.90;;;;;;5024173;28;20202;-83
2022/12/11 00:40:24;;;;;;;24.47;20.33;;;0.50;99.90;;;;;;5024071;28;20208;-83
2022/12/11 00:42:49;;;;;;;22.13;18.90;;;0.50;99.90;;;;;;5023544;28;20187;-83
2022/12/11 00:45:15;;;;;;;26.80;19.50;;;0.50;99.90;;;;;;5024046;28;20203;-83
2022/12/11 00:47:40;;;;;;;22.13;18.77;;;0.60;99.90;;;;;;5023891;28;20226;-83
2022/12/11 00:50:06;;;;;;;21.47;18.27;;;0.60;99.90;;;;;;5023339;28;20172;-83
2022/12/11 00:52:32;;;;;;;23.80;19.53;;;0.50;99.90;;;;;;5023431;28;20194;-83
2022/12/11 00:54:58;;;;;;;21.87;18.70;;;0.50;99.90;;;;;;5023155;28;20233;-83
2022/12/11 00:57:23;;;;;;;22.53;18.87;;;0.40;99.90;;;;;;5022914;28;20186;-83
2022/12/11 00:59:49;;;;;;;20.53;17.90;;;0.40;99.90;;;;;;5023363;28;20255;-83
2022/12/11 01:02:16;;;;;;;21.03;18.57;;;0.50;99.90;;;;;;5023522;28;20179;-83
2022/12/11 01:04:42;;;;;;;22.27;18.87;;;0.60;99.90;;;;;;5022404;28;20178;-83
2022/12/11 01:07:07;;;;;;;25.00;18.60;;;0.60;99.90;;;;;;5022100;28;20203;-83
2022/12/11 01:12:17;;;;;;;22.67;18.10;;;0.60;99.90;;;;;;5024581;28;20227;-83
2022/12/11 01:14:42;;;;;;;21.80;18.70;;;0.60;99.90;;;;;;5022303;28;20203;-83
2022/12/11 01:17:08;;;;;;;20.93;18.37;;;0.60;99.90;;;;;;5024529;28;20186;-83
2022/12/11 01:19:33;;;;;;;21.70;18.77;;;0.60;99.90;;;;;;5021750;28;20175;-83
2022/12/11 01:21:59;;;;;;;24.90;18.37;;;0.60;99.90;;;;;;5020729;28;20183;-83
2022/12/11 01:24:24;;;;;;;23.60;19.30;;;0.60;99.90;;;;;;5021579;28;20271;-83
2022/12/11 01:26:50;;;;;;;23.93;19.83;;;0.60;99.90;;;;;;5020127;28;20207;-83
2022/12/11 01:29:16;;;;;;;23.07;19.53;;;0.60;99.90;;;;;;5021721;28;20250;-83
2022/12/11 01:31:41;;;;;;;23.93;19.20;;;0.50;99.90;;;;;;5022478;28;20520;-83
2022/12/11 01:34:07;;;;;;;22.87;19.17;;;0.60;99.90;;;;;;5022374;28;20190;-83
2022/12/11 01:36:32;;;;;;;24.47;20.23;;;0.60;99.90;;;;;;5021027;28;20195;-83
2022/12/11 01:38:58;;;;;;;23.23;18.47;;;0.60;99.90;;;;;;5021538;28;20180;-83
2022/12/11 01:41:23;;;;;;;22.03;18.67;;;0.50;99.90;;;;;;5022404;28;20171;-83
2022/12/11 01:44:02;;;;;;;21.87;18.63;;;0.50;99.90;;;;;;5021160;28;20184;-83
2022/12/11 01:46:31;;;;;;;23.60;18.70;;;0.50;99.90;;;;;;5020025;28;20206;-83
2022/12/11 01:48:58;;;;;;;22.00;18.50;;;0.50;99.90;;;;;;5022466;28;20178;-83
2022/12/11 01:51:23;;;;;;;23.70;18.03;;;0.60;99.90;;;;;;5020481;28;20593;-83
2022/12/11 01:54:00;;;;;;;24.43;19.93;;;0.50;99.90;;;;;;5021220;28;20176;-83
2022/12/11 01:56:29;;;;;;;23.20;18.43;;;0.40;99.90;;;;;;5019737;28;20213;-83
2022/12/11 01:58:59;;;;;;;24.60;19.07;;;0.40;99.90;;;;;;5021628;28;20183;-83
2022/12/11 02:01:33;;;;;;;23.47;18.60;;;0.40;99.90;;;;;;5020603;28;20176;-83
2022/12/11 02:04:00;;;;;;;21.83;18.47;;;0.40;99.90;;;;;;5021969;28;20156;-83
2022/12/11 02:06:35;;;;;;;23.03;18.30;;;0.50;99.90;;;;;;5020073;28;20215;-83
2022/12/11 02:09:02;;;;;;;23.47;18.40;;;0.40;99.90;;;;;;5019349;28;20168;-83
2022/12/11 02:11:38;;;;;;;21.80;18.70;;;0.30;99.90;;;;;;5019978;28;20180;-83
2022/12/11 02:14:13;;;;;;;22.10;18.10;;;0.30;99.90;;;;;;5019877;28;20167;-83
2022/12/11 02:17:01;;;;;;;24.60;18.87;;;0.20;99.90;;;;;;5020026;28;20289;-83
2022/12/11 02:19:47;;;;;;;22.77;17.73;;;0.10;99.90;;;;;;5004650;28;20207;-83
2022/12/11 02:22:26;;;;;;;24.73;19.00;;;0.00;99.90;;;;;;5021156;28;20160;-83
2022/12/11 02:25:31;;;;;;;25.63;19.63;;;0.10;99.90;;;;;;5020901;28;20195;-83
2022/12/11 02:28:15;;;;;;;24.67;19.30;;;0.00;99.90;;;;;;4940183;29;20209;-83
2022/12/11 02:30:46;;;;;;;23.87;18.57;;;0.10;99.90;;;;;;4924247;29;20174;-83
2022/12/11 02:33:12;;;;;;;24.03;18.53;;;0.10;99.90;;;;;;4991262;28;20184;-83
2022/12/11 02:35:40;;;;;;;23.97;19.40;;;0.00;99.90;;;;;;5018538;28;20255;-83
2022/12/11 02:38:15;;;;;;;20.47;16.37;;;0.00;99.90;;;;;;5019615;28;20190;-83
2022/12/11 02:40:42;;;;;;;18.03;14.63;;;-0.10;99.90;;;;;;5019986;28;20186;-83
2022/12/11 02:43:12;;;;;;;15.87;12.83;;;-0.10;99.90;;;;;;5018076;28;20187;-83
2022/12/11 02:45:40;;;;;;;16.33;13.47;;;-0.10;99.90;;;;;;5014939;28;20199;-84
2022/12/11 02:48:09;;;;;;;17.37;13.77;;;-0.10;99.90;;;;;;5015320;28;20207;-84
2022/12/11 02:50:47;;;;;;;15.97;13.10;;;-0.10;99.90;;;;;;5017805;28;20175;-84
2022/12/11 02:53:17;;;;;;;14.20;11.27;;;-0.10;99.90;;;;;;5015314;28;20622;-84
2022/12/11 02:55:44;;;;;;;14.47;11.97;;;-0.10;99.90;;;;;;5013726;28;20192;-83
2022/12/11 02:58:31;;;;;;;15.17;12.10;;;-0.20;99.90;;;;;;5013524;28;20187;-84
2022/12/11 03:00:56;;;;;;;14.50;11.47;;;-0.20;99.90;;;;;;5014838;28;20225;-84
2022/12/11 03:03:22;;;;;;;12.63;10.83;;;-0.30;99.90;;;;;;5013311;28;20187;-84
2022/12/11 03:05:48;;;;;;;12.67;11.00;;;-0.40;99.90;;;;;;5013586;28;20203;-84
2022/12/11 03:08:16;;;;;;;13.60;11.57;;;-0.40;99.90;;;;;;5014199;28;20218;-84
2022/12/11 03:10:42;;;;;;;14.47;12.03;;;-0.50;99.90;;;;;;5015020;28;20179;-84
2022/12/11 03:13:08;;;;;;;14.10;11.27;;;-0.50;99.90;;;;;;5013133;28;20548;-84
2022/12/11 03:16:17;;;;;;;14.57;11.83;;;-0.60;99.90;;;;;;5013377;28;20203;-84
2022/12/11 03:19:08;;;;;;;15.23;12.17;;;-0.60;99.90;;;;;;5014073;28;20172;-84
2022/12/11 03:21:40;;;;;;;13.80;11.27;;;-0.70;99.90;;;;;;5014318;28;20180;-84
2022/12/11 03:24:11;;;;;;;15.07;12.23;;;-0.90;99.90;;;;;;5014779;28;20172;-84
2022/12/11 03:26:43;;;;;;;15.80;12.60;;;-0.80;99.90;;;;;;5013615;28;20212;-84
2022/12/11 03:29:35;;;;;;;14.40;10.87;;;-0.90;99.90;;;;;;5014056;28;20225;-84
2022/12/11 03:32:10;;;;;;;15.93;12.00;;;-0.90;99.90;;;;;;5002562;28;20223;-84
2022/12/11 03:34:49;;;;;;;14.10;11.73;;;-1.00;99.90;;;;;;5014089;28;20220;-84
2022/12/11 03:37:16;;;;;;;15.20;11.77;;;-1.00;99.90;;;;;;5015093;28;20171;-84
2022/12/11 03:39:47;;;;;;;15.43;12.20;;;-1.00;99.90;;;;;;5014396;28;20172;-84
2022/12/11 03:42:15;;;;;;;15.53;11.97;;;-1.00;99.90;;;;;;5014651;28;20164;-84
2022/12/11 03:44:46;;;;;;;15.20;11.93;;;-1.00;99.90;;;;;;5012891;28;20180;-84
2022/12/11 03:47:30;;;;;;;19.83;15.10;;;-1.10;99.90;;;;;;5014737;28;20207;-84
2022/12/11 03:49:58;;;;;;;17.73;13.20;;;-1.00;99.90;;;;;;5016925;28;20203;-84
2022/12/11 03:52:26;;;;;;;16.47;12.53;;;-1.00;99.90;;;;;;5016505;28;20180;-84
2022/12/11 03:54:56;;;;;;;16.87;13.17;;;-0.90;99.90;;;;;;5016506;28;20200;-84
2022/12/11 03:57:27;;;;;;;16.60;12.63;;;-0.90;99.90;;;;;;5016887;28;20179;-84
2022/12/11 03:59:52;;;;;;;15.50;12.30;;;-0.80;99.90;;;;;;5017096;28;20179;-84
2022/12/11 04:02:18;;;;;;;17.50;13.97;;;-0.80;99.90;;;;;;5016165;28;20179;-84
2022/12/11 04:04:43;;;;;;;14.87;12.00;;;-0.90;99.90;;;;;;5015875;28;20190;-84
2022/12/11 04:07:09;;;;;;;16.50;13.33;;;-1.00;99.90;;;;;;5016314;28;20216;-84
2022/12/11 04:09:35;;;;;;;15.30;13.40;;;-1.00;99.90;;;;;;5016420;28;20175;-84
2022/12/11 04:12:01;;;;;;;16.57;13.83;;;-1.10;99.90;;;;;;5016168;28;20187;-84
2022/12/11 04:17:11;;;;;;;15.53;12.70;;;-1.10;99.90;;;;;;5017764;28;20522;-84
2022/12/11 04:25:06;;;;;;;17.30;13.20;;;-1.20;99.90;;;;;;5017451;28;20290;-84
2022/12/11 04:27:50;;;;;;;16.43;13.17;;;-1.10;99.90;;;;;;5016640;28;20214;-84
2022/12/11 04:30:19;;;;;;;16.63;13.10;;;-1.10;99.90;;;;;;5016118;28;20175;-84
2022/12/11 04:33:01;;;;;;;16.53;12.97;;;-1.10;99.90;;;;;;5015971;28;20191;-84
2022/12/11 04:35:27;;;;;;;16.27;12.87;;;-1.10;99.90;;;;;;5016112;28;20260;-84
2022/12/11 04:37:52;;;;;;;16.13;12.83;;;-1.10;99.90;;;;;;5016430;28;20183;-84
2022/12/11 04:40:19;;;;;;;16.87;13.47;;;-1.00;99.90;;;;;;5015889;28;20176;-84
2022/12/11 04:42:45;;;;;;;18.20;14.47;;;-1.00;99.90;;;;;;5015901;28;20188;-84
2022/12/11 04:45:11;;;;;;;19.00;14.77;;;-0.90;99.90;;;;;;5015475;28;20214;-84
2022/12/11 04:47:39;;;;;;;17.27;13.73;;;-0.90;99.90;;;;;;5015400;28;20215;-84
2022/12/11 04:50:06;;;;;;;17.97;14.00;;;-0.90;99.90;;;;;;5015076;28;20231;-84
2022/12/11 04:52:31;;;;;;;17.47;13.40;;;-0.90;99.90;;;;;;5015240;28;20221;-84
2022/12/11 04:54:57;;;;;;;14.43;12.13;;;-0.90;99.90;;;;;;5015605;28;20231;-84
2022/12/11 04:57:23;;;;;;;15.90;12.83;;;-0.90;99.90;;;;;;5015070;28;20206;-84
2022/12/11 04:59:48;;;;;;;20.60;16.93;;;-0.90;99.90;;;;;;5015564;28;20190;-84
2022/12/11 05:02:14;;;;;;;22.90;19.03;;;-0.90;99.90;;;;;;5014805;28;20278;-84
2022/12/11 05:04:40;;;;;;;19.50;16.30;;;-0.90;99.90;;;;;;5014891;28;20175;-84
2022/12/11 05:07:08;;;;;;;17.20;13.77;;;-0.90;99.90;;;;;;5015056;28;20204;-84
2022/12/11 05:09:34;;;;;;;16.03;13.47;;;-0.90;99.90;;;;;;5014816;28;20176;-84
2022/12/11 05:12:00;;;;;;;15.77;12.77;;;-0.90;99.90;;;;;;5015322;28;20171;-84
2022/12/11 05:14:26;;;;;;;14.30;11.77;;;-1.00;99.90;;;;;;5014825;28;20182;-84
2022/12/11 05:16:52;;;;;;;13.83;12.10;;;-1.00;99.90;;;;;;5014770;28;20245;-84
2022/12/11 05:19:17;;;;;;;16.60;12.87;;;-1.00;99.90;;;;;;5016026;28;20179;-84
2022/12/11 05:21:43;;;;;;;16.97;12.93;;;-1.00;99.90;;;;;;5014647;28;20175;-84
2022/12/11 05:24:08;;;;;;;16.07;13.33;;;-1.00;99.90;;;;;;5014552;28;20179;-84
2022/12/11 05:26:34;;;;;;;18.30;14.23;;;-1.00;99.90;;;;;;5014442;28;20293;-84
2022/12/11 05:29:00;;;;;;;17.03;13.30;;;-1.10;99.90;;;;;;5014799;28;20207;-84
2022/12/11 05:31:26;;;;;;;16.33;13.57;;;-1.00;99.90;;;;;;5015206;28;20176;-84
2022/12/11 05:33:53;;;;;;;16.03;12.67;;;-1.00;99.90;;;;;;5015542;28;20168;-84
2022/12/11 05:36:20;;;;;;;15.37;12.73;;;-1.00;99.90;;;;;;5014499;28;20206;-84
2022/12/11 05:38:46;;;;;;;16.53;13.23;;;-1.00;99.90;;;;;;5015220;28;20176;-84
2022/12/11 05:41:14;;;;;;;18.00;13.17;;;-1.00;99.90;;;;;;5014486;28;20274;-84
2022/12/11 05:43:41;;;;;;;17.50;13.77;;;-1.00;99.90;;;;;;5014033;28;20207;-84
2022/12/11 05:46:42;;;;;;;16.10;12.63;;;-1.20;99.90;;;;;;5013546;28;20226;-84
2022/12/11 05:49:09;;;;;;;16.47;12.50;;;-1.20;99.90;;;;;;5013554;28;20199;-84
2022/12/11 05:51:35;;;;;;;16.30;13.53;;;-1.30;99.90;;;;;;5013474;28;20180;-84
2022/12/11 05:54:02;;;;;;;15.40;12.23;;;-1.30;99.90;;;;;;5014974;28;20180;-84
2022/12/11 05:56:31;;;;;;;16.40;12.90;;;-1.40;99.90;;;;;;5013376;28;20238;-84
2022/12/11 05:58:58;;;;;;;16.10;12.97;;;-1.40;99.90;;;;;;5013681;28;20210;-84
2022/12/11 06:01:27;;;;;;;16.73;13.40;;;-1.40;99.90;;;;;;5013594;28;20538;-84
2022/12/11 06:03:54;;;;;;;16.57;12.80;;;-1.40;99.90;;;;;;5013548;28;20179;-84
2022/12/11 06:06:20;;;;;;;15.63;13.57;;;-1.40;99.90;;;;;;5014471;28;20195;-84
2022/12/11 06:08:49;;;;;;;17.13;13.97;;;-1.50;99.90;;;;;;5013098;28;20214;-84
2022/12/11 06:11:14;;;;;;;16.50;14.10;;;-1.50;99.90;;;;;;5012171;28;20179;-84
2022/12/11 06:13:40;;;;;;;16.67;13.60;;;-1.50;99.90;;;;;;5014203;28;20179;-84
2022/12/11 06:16:07;;;;;;;18.73;14.23;;;-1.50;99.90;;;;;;5014334;28;20195;-84
2022/12/11 06:18:42;;;;;;;19.50;14.80;;;-1.50;99.90;;;;;;5013384;28;20191;-84
2022/12/11 06:21:16;;;;;;;17.77;14.30;;;-1.60;99.90;;;;;;5013257;28;20175;-84
2022/12/11 06:23:43;;;;;;;19.33;14.37;;;-1.60;99.90;;;;;;5013006;28;20650;-84
2022/12/11 06:26:10;;;;;;;17.03;14.80;;;-1.70;99.90;;;;;;5014246;28;20568;-84
2022/12/11 06:28:36;;;;;;;26.13;21.60;;;-1.70;99.90;;;;;;5012823;28;20553;-84
2022/12/11 06:31:02;;;;;;;20.47;16.90;;;-1.70;99.90;;;;;;5012961;28;20206;-84
2022/12/11 06:33:29;;;;;;;20.20;16.33;;;-1.80;99.90;;;;;;5012813;28;20187;-84
2022/12/11 06:35:54;;;;;;;18.50;14.50;;;-1.80;99.90;;;;;;5014066;28;20201;-84
2022/12/11 06:38:20;;;;;;;19.10;14.73;;;-1.80;99.90;;;;;;5013238;28;20278;-84
2022/12/11 06:40:52;;;;;;;19.10;14.97;;;-1.90;99.90;;;;;;5013299;28;20187;-84
2022/12/11 06:43:18;;;;;;;17.43;13.97;;;-1.90;99.90;;;;;;5013508;28;20183;-84
2022/12/11 06:45:43;;;;;;;17.10;13.20;;;-1.90;99.90;;;;;;5013793;28;20545;-84
2022/12/11 06:48:09;;;;;;;17.07;13.63;;;-1.90;99.90;;;;;;5012640;28;20245;-84
2022/12/11 06:50:37;;;;;;;16.37;12.77;;;-1.90;99.90;;;;;;5013176;28;20171;-84
2022/12/11 06:53:02;;;;;;;19.20;14.37;;;-1.90;99.90;;;;;;5012680;28;20222;-84
2022/12/11 06:55:28;;;;;;;16.70;12.73;;;-2.00;99.90;;;;;;5012405;28;20306;-84
2022/12/11 06:57:54;;;;;;;16.67;12.70;;;-2.00;99.90;;;;;;5012593;28;20194;-84
2022/12/11 07:00:19;;;;;;;17.00;13.00;;;-2.10;99.90;;;;;;5012737;28;20194;-84
2022/12/11 07:03:08;;;;;;;16.17;13.13;;;-2.10;99.90;;;;;;5014168;28;20187;-84
2022/12/11 07:05:34;;;;;;;17.07;12.83;;;-2.10;99.90;;;;;;5013787;28;20206;-84
2022/12/11 07:08:00;;;;;;;15.77;12.60;;;-2.10;99.90;;;;;;5012359;28;20207;-84
2022/12/11 07:10:26;;;;;;;19.57;16.23;;;-2.10;99.90;;;;;;5012630;28;20210;-84
2022/12/11 07:12:53;;;;;;;18.17;12.80;;;-2.10;99.90;;;;;;5012699;28;20183;-84
2022/12/11 07:15:18;;;;;;;19.20;15.07;;;-2.00;99.90;;;;;;5012970;28;20207;-84
2022/12/11 07:17:44;;;;;;;19.83;14.33;;;-2.00;99.90;;;;;;5012669;28;20262;-84
2022/12/11 07:20:10;;;;;;;17.40;13.17;;;-1.90;99.90;;;;;;5013194;28;20179;-84
2022/12/11 07:22:35;;;;;;;16.40;13.33;;;-1.90;99.90;;;;;;5015390;28;20179;-84
2022/12/11 07:25:01;;;;;;;16.37;13.23;;;-1.80;99.90;;;;;;5016608;28;20238;-84
2022/12/11 07:27:27;;;;;;;14.47;12.70;;;-1.70;99.90;;;;;;5016434;28;20302;-84
2022/12/11 07:29:54;;;;;;;18.77;14.43;;;-1.60;99.90;;;;;;5017078;28;20241;-84
2022/12/11 07:32:20;;;;;;;19.77;14.03;;;-1.60;99.90;;;;;;5017398;28;20658;-84
2022/12/11 07:34:46;;;;;;;19.40;15.00;;;-1.50;99.90;;;;;;5016128;28;20207;-84
2022/12/11 07:40:41;;;;;;;17.80;14.13;;;-1.40;99.90;;;;;;5017196;28;20190;-84
2022/12/11 07:43:06;;;;;;;17.60;13.83;;;-1.30;99.90;;;;;;5016957;28;20588;-84
2022/12/11 07:45:32;;;;;;;18.13;14.03;;;-1.20;99.90;;;;;;5017103;28;20200;-84
2022/12/11 07:47:58;;;;;;;17.03;12.83;;;-1.10;99.90;;;;;;5015821;28;20564;-84
2022/12/11 07:50:23;;;;;;;17.10;13.13;;;-1.10;99.90;;;;;;5016852;28;20229;-84
2022/12/11 07:52:49;;;;;;;16.30;12.90;;;-1.10;99.90;;;;;;5015735;28;20226;-84
2022/12/11 07:55:14;;;;;;;14.00;12.20;;;-1.00;99.90;;;;;;5015557;28;20258;-84
2022/12/11 07:57:40;;;;;;;14.23;12.07;;;-1.00;99.90;;;;;;5016822;28;20180;-84
2022/12/11 08:00:06;;;;;;;16.23;12.83;;;-0.90;99.90;;;;;;5015555;28;20227;-84
2022/12/11 08:02:32;;;;;;;14.27;12.10;;;-0.90;99.90;;;;;;5016181;28;20191;-84
2022/12/11 08:04:58;;;;;;;15.13;11.93;;;-0.90;99.90;;;;;;5016869;28;20191;-84
2022/12/11 08:07:23;;;;;;;14.63;11.63;;;-0.80;99.90;;;;;;5015247;28;20210;-84
2022/12/11 08:09:49;;;;;;;15.83;12.10;;;-0.80;99.90;;;;;;5016627;28;20175;-84
2022/12/11 08:12:14;;;;;;;15.93;12.80;;;-0.90;99.90;;;;;;5015849;28;20183;-84
2022/12/11 08:14:40;;;;;;;15.13;12.20;;;-0.80;99.90;;;;;;5015211;28;20207;-84
2022/12/11 08:17:06;;;;;;;14.30;11.63;;;-0.80;99.90;;;;;;5015515;28;20183;-84
2022/12/11 08:19:31;;;;;;;13.70;11.47;;;-0.90;99.90;;;;;;5015558;28;20264;-84
2022/12/11 08:21:57;;;;;;;14.70;11.93;;;-0.80;99.90;;;;;;5015530;28;20195;-83
2022/12/11 08:24:22;;;;;;;15.73;12.83;;;-0.80;99.90;;;;;;5015999;28;20180;-84
2022/12/11 08:26:48;;;;;;;17.57;14.33;;;-0.80;99.90;;;;;;5014924;28;20202;-84
2022/12/11 08:29:13;;;;;;;16.13;12.67;;;-0.70;99.90;;;;;;5015764;28;20506;-84
2022/12/11 08:31:40;;;;;;;14.20;11.70;;;-0.60;99.90;;;;;;5015345;28;20175;-84
2022/12/11 08:34:06;;;;;;;15.63;12.37;;;-0.60;99.90;;;;;;5013925;28;20182;-84
2022/12/11 08:36:31;;;;;;;16.07;12.67;;;-0.60;99.90;;;;;;5016138;28;20192;-84
2022/12/11 08:38:57;;;;;;;14.03;12.10;;;-0.60;99.90;;;;;;5016030;28;20642;-84
2022/12/11 08:41:27;;;;;;;12.93;11.23;;;-0.60;99.90;;;;;;5015102;28;20712;-84
2022/12/11 08:43:53;;;;;;;13.97;11.70;;;-0.60;99.90;;;;;;5015154;28;20190;-84
2022/12/11 08:46:24;;;;;;;14.40;11.10;;;-0.50;99.90;;;;;;5014837;28;20294;-84
2022/12/11 08:48:49;;;;;;;13.50;10.97;;;-0.50;99.90;;;;;;5015966;28;20298;-84
2022/12/11 08:51:19;;;;;;;17.60;12.07;;;-0.40;99.90;;;;;;5016011;28;20263;-84
2022/12/11 08:53:45;;;;;;;13.33;10.40;;;-0.50;99.90;;;;;;5014404;28;20188;-84
2022/12/11 08:56:13;;;;;;;12.67;10.17;;;-0.50;99.90;;;;;;5015619;28;20204;-84
2022/12/11 08:58:39;;;;;;;11.47;9.87;;;-0.40;99.90;;;;;;5015799;28;20190;-84
2022/12/11 09:01:10;;;;;;;13.90;10.50;;;-0.30;99.90;;;;;;5014778;28;20179;-84
2022/12/11 09:03:36;;;;;;;13.30;9.70;;;-0.20;99.90;;;;;;5014430;28;20218;-84
2022/12/11 09:06:22;;;;;;;11.30;9.17;;;-0.10;99.90;;;;;;5014527;28;20207;-83
2022/12/11 09:12:09;;;;;;;38.80;24.30;;;0.00;99.90;;;;;;5015643;28;20162;-84
2022/12/11 09:14:40;;;;;;;20.83;15.07;;;-0.10;99.90;;;;;;5013965;28;20176;-84
2022/12/11 09:17:25;;;;;;;21.33;16.10;;;-0.10;99.90;;;;;;5015019;28;20168;-84
2022/12/11 09:19:57;;;;;;;13.27;10.47;;;-0.10;99.90;;;;;;5013894;28;20218;-85
2022/12/11 09:22:26;;;;;;;16.40;12.30;;;0.00;99.90;;;;;;5013897;28;20164;-85
2022/12/11 09:24:53;;;;;;;10.83;8.77;;;0.00;99.90;;;;;;5014016;28;20196;-85
2022/12/11 09:27:20;;;;;;;46.30;29.47;;;-0.10;99.90;;;;;;5013920;28;20195;-84
2022/12/11 09:29:46;;;;;;;23.60;16.47;;;-0.10;99.90;;;;;;5014603;28;20221;-84
2022/12/11 09:32:11;;;;;;;13.33;10.03;;;-0.10;99.90;;;;;;5015011;28;20259;-85
2022/12/11 09:34:37;;;;;;;61.43;36.77;;;0.10;99.90;;;;;;5013771;28;20186;-85
2022/12/11 09:37:02;;;;;;;17.27;12.77;;;0.20;99.90;;;;;;5014920;28;20198;-85
2022/12/11 09:40:11;;;;;;;29.40;18.63;;;0.40;99.90;;;;;;5013820;28;20318;-85
2022/12/11 09:42:57;;;;;;;27.20;17.83;;;0.60;99.90;;;;;;5013541;28;20601;-85
2022/12/11 09:45:22;;;;;;;14.23;8.83;;;0.70;99.90;;;;;;5013793;28;20199;-85
2022/12/11 09:47:54;;;;;;;7.93;6.80;;;0.70;99.90;;;;;;5013439;28;20207;-85
2022/12/11 09:50:26;;;;;;;6.00;5.40;;;0.90;99.90;;;;;;5013419;28;20198;-85
2022/12/11 09:53:30;;;;;;;5.03;4.30;;;1.00;99.90;;;;;;5014179;28;20187;-85
2022/12/11 09:56:08;;;;;;;5.80;4.90;;;0.90;99.90;;;;;;5014982;28;20195;-85
2022/12/11 09:58:37;;;;;;;5.77;5.17;;;1.00;99.90;;;;;;5013267;28;20677;-85
2022/12/11 10:01:07;;;;;;;6.07;4.77;;;1.00;99.90;;;;;;5013498;28;20183;-84
2022/12/11 10:03:53;;;;;;;7.47;5.57;;;1.20;99.90;;;;;;5013398;28;20180;-84
2022/12/11 10:06:34;;;;;;;4.83;4.43;;;1.40;99.90;;;;;;5013969;28;20230;-84
2022/12/11 10:09:16;;;;;;;5.97;4.63;;;1.50;99.90;;;;;;5013305;28;20203;-84
2022/12/11 10:11:41;;;;;;;4.93;4.43;;;1.60;99.90;;;;;;5013072;28;20175;-85
2022/12/11 10:14:37;;;;;;;4.97;4.37;;;1.70;99.90;;;;;;5014444;28;20634;-85
2022/12/11 10:17:17;;;;;;;4.53;3.70;;;1.60;99.90;;;;;;5014125;28;20176;-85
2022/12/11 10:19:43;;;;;;;4.70;4.20;;;1.50;99.90;;;;;;5014305;28;20164;-85
2022/12/11 10:22:26;;;;;;;6.73;4.53;;;1.50;99.90;;;;;;5013551;28;20179;-85
2022/12/11 10:25:21;;;;;;;4.60;3.90;;;1.60;99.90;;;;;;5014248;28;20207;-84
2022/12/11 10:27:47;;;;;;;5.10;4.40;;;1.60;99.90;;;;;;5014101;28;20274;-84
2022/12/11 10:30:48;;;;;;;5.27;4.03;;;1.60;99.90;;;;;;5015081;28;20556;-84
2022/12/11 10:36:37;;;;;;;6.53;4.93;;;1.50;99.90;;;;;;5013955;28;20677;-84
2022/12/11 10:39:15;;;;;;;5.20;4.60;;;1.50;99.90;;;;;;5012974;28;20188;-83
2022/12/11 10:41:51;;;;;;;6.57;4.67;;;1.40;99.90;;;;;;5012705;28;20175;-83
2022/12/11 10:44:24;;;;;;;5.87;4.70;;;1.50;99.90;;;;;;5013856;28;20204;-83
2022/12/11 10:47:12;;;;;;;9.43;7.37;;;1.30;99.90;;;;;;5015010;28;20196;-83
2022/12/11 10:49:42;;;;;;;9.17;7.17;;;1.40;99.90;;;;;;5015133;28;20210;-83
2022/12/11 10:52:21;;;;;;;8.00;6.20;;;1.40;99.90;;;;;;5015039;28;20642;-83
2022/12/11 10:55:06;;;;;;;6.53;5.10;;;1.20;99.90;;;;;;5017795;28;20171;-84
2022/12/11 10:57:37;;;;;;;7.80;5.30;;;1.10;99.90;;;;;;5016755;28;20171;-84
2022/12/11 11:00:06;;;;;;;6.73;5.77;;;1.30;99.90;;;;;;5020848;28;20167;-84
2022/12/11 11:02:40;;;;;;;20.07;6.57;;;1.40;99.90;;;;;;5019258;28;20226;-84
2022/12/11 11:05:25;;;;;;;15.93;7.20;;;1.40;99.90;;;;;;5019267;28;20202;-84
2022/12/11 11:08:21;;;;;;;18.10;7.10;;;1.40;99.90;;;;;;5019522;28;20211;-84
2022/12/11 11:10:56;;;;;;;10.70;7.23;;;1.40;99.90;;;;;;5019836;28;20183;-84
2022/12/11 11:13:25;;;;;;;15.17;7.47;;;1.30;99.90;;;;;;5019404;28;20164;-83
2022/12/11 11:16:00;;;;;;;10.57;7.37;;;1.30;99.90;;;;;;5019441;28;20674;-83
2022/12/11 11:18:27;;;;;;;8.90;6.90;;;1.30;99.90;;;;;;5017982;28;20193;-84
2022/12/11 11:20:54;;;;;;;8.80;6.47;;;1.30;99.90;;;;;;5019427;28;20180;-83
2022/12/11 11:23:20;;;;;;;8.43;6.90;;;1.40;99.90;;;;;;5019363;28;20179;-83
2022/12/11 11:25:55;;;;;;;10.13;7.63;;;1.50;99.90;;;;;;5018501;28;20593;-83
2022/12/11 11:28:45;;;;;;;8.67;7.10;;;1.50;99.90;;;;;;5018036;28;20195;-83
2022/12/11 11:31:36;;;;;;;8.67;6.63;;;1.50;99.90;;;;;;5018126;28;20171;-83
2022/12/11 11:34:07;;;;;;;10.87;7.57;;;1.50;99.90;;;;;;5017628;28;20172;-83
2022/12/11 11:36:34;;;;;;;10.10;7.60;;;1.60;99.90;;;;;;5018323;28;20210;-83
2022/12/11 11:39:13;;;;;;;8.67;7.60;;;1.40;99.90;;;;;;5018489;28;20187;-83
2022/12/11 11:42:03;;;;;;;7.50;6.70;;;1.40;99.90;;;;;;5017079;28;20195;-83
2022/12/11 11:44:41;;;;;;;10.17;7.90;;;1.30;99.90;;;;;;5016919;28;20233;-83
2022/12/11 11:47:42;;;;;;;10.20;7.00;;;1.40;99.90;;;;;;5018149;28;20533;-83
2022/12/11 11:50:21;;;;;;;13.77;9.37;;;1.20;99.90;;;;;;5017171;28;20203;-83
2022/12/11 11:53:04;;;;;;;13.07;7.57;;;1.10;99.90;;;;;;5017622;28;20170;-83
2022/12/11 11:55:41;;;;;;;10.37;7.47;;;1.10;99.90;;;;;;5017596;28;20254;-83
2022/12/11 11:58:14;;;;;;;10.33;7.53;;;1.10;99.90;;;;;;5017225;28;20178;-83
2022/12/11 12:00:40;;;;;;;9.87;7.60;;;1.10;99.90;;;;;;5016916;28;20198;-83
2022/12/11 12:03:14;;;;;;;8.80;7.47;;;0.90;99.90;;;;;;5016926;28;20255;-83
2022/12/11 12:06:08;;;;;;;11.13;8.83;;;0.80;99.90;;;;;;5018567;28;20207;-83
2022/12/11 12:08:48;;;;;;;13.80;9.10;;;0.70;99.90;;;;;;5017198;28;20207;-83
2022/12/11 12:11:30;;;;;;;15.20;10.60;;;0.60;99.90;;;;;;5016630;28;20191;-83
2022/12/11 12:14:24;;;;;;;17.93;12.37;;;0.70;99.90;;;;;;5016058;28;20210;-83
2022/12/11 12:17:24;;;;;;;11.93;9.53;;;0.80;99.90;;;;;;5016989;28;20203;-84
2022/12/11 12:20:19;;;;;;;14.67;9.33;;;0.90;99.90;;;;;;5016195;28;20163;-84
2022/12/11 12:23:15;;;;;;;11.47;8.93;;;0.90;99.90;;;;;;5015774;28;20164;-84
2022/12/11 12:26:04;;;;;;;12.63;9.30;;;0.90;99.90;;;;;;5016012;28;20704;-84
2022/12/11 12:28:54;;;;;;;16.50;12.20;;;0.80;99.90;;;;;;5016167;28;20620;-84
2022/12/11 12:32:10;;;;;;;18.10;13.93;;;0.80;99.90;;;;;;5017709;28;20176;-84
2022/12/11 12:35:31;;;;;;;11.50;8.20;;;0.70;99.90;;;;;;5016853;28;20250;-83
2022/12/11 12:38:06;;;;;;;11.67;9.63;;;0.50;99.90;;;;;;4921565;29;20185;-83
2022/12/11 12:40:48;;;;;;;46.30;29.80;;;0.50;99.90;;;;;;4921466;29;20177;-83
2022/12/11 12:47:20;;;;;;;66.30;37.93;;;0.60;99.90;;;;;;5016339;28;20751;-83
2022/12/11 12:50:02;;;;;;;136.70;67.97;;;0.80;99.90;;;;;;5015576;28;20293;-83
2022/12/11 12:52:37;;;;;;;30.87;18.60;;;0.80;99.90;;;;;;5015610;28;20183;-83
2022/12/11 12:55:36;;;;;;;31.90;18.37;;;0.90;99.90;;;;;;5016998;28;20568;-83
2022/12/11 12:58:05;;;;;;;46.70;27.23;;;0.80;99.90;;;;;;5015172;28;20199;-84
2022/12/11 13:00:42;;;;;;;60.40;31.93;;;0.80;99.90;;;;;;5015821;28;20209;-82
2022/12/11 13:03:16;;;;;;;34.33;19.47;;;0.90;99.90;;;;;;5015776;28;20171;-84
2022/12/11 13:06:07;;;;;;;51.00;28.23;;;0.90;99.90;;;;;;5016112;28;20203;-83
2022/12/11 13:08:40;;;;;;;28.63;16.33;;;1.00;99.90;;;;;;5014406;28;20230;-84
2022/12/11 13:11:09;;;;;;;23.10;12.63;;;1.00;99.90;;;;;;5014217;28;20194;-83
2022/12/11 13:13:41;;;;;;;17.67;10.63;;;0.90;99.90;;;;;;5016098;28;20206;-84
2022/12/11 13:16:16;;;;;;;14.93;10.23;;;0.80;99.90;;;;;;5016026;28;20291;-83
2022/12/11 13:18:44;;;;;;;12.10;9.87;;;0.90;99.90;;;;;;5015263;28;20168;-83
2022/12/11 13:21:34;;;;;;;14.07;9.80;;;0.80;99.90;;;;;;5014440;28;20242;-83
2022/12/11 13:24:12;;;;;;;15.00;10.87;;;0.80;99.90;;;;;;5015888;28;20171;-83